Beringen, Belgium
Current Conditions -  °F | °C
As of 2:25 PM on Friday 24 Oct 2014 (Local Time) from EBDT Reporting Station
Broken Clouds Broken Clouds  
Wind Chill: 55°   Ceiling: 4000
Heat Index: 55°   Visibility: 6mi
Dew Point: 48°   Wind: 9mph
Humidity: 77%   Direction: 190°S
Pressure: 30.09"   Gusts: NA
Location:  51.05°N, 5.23°E
Report Text: EBDT 241225Z 19008KT 9999 SCT021 BKN040 13/09 Q1019 WHT WHT
Loading
Personal Weather Stations






























Interactive Weather Map
Tropical Storm Tracking
New forecast layout! Learn more

10-Day Weather Forecast

Advertisements
Track Severe Weather on mobile